sensor_id;sensor_type;location;lat;lon;timestamp;temperature;humidity
4695;DHT22;2361;49.540;8.390;2023-04-03T00:01:01;6.40;99.90
4695;DHT22;2361;49.540;8.390;2023-04-03T00:03:28;6.30;99.90
4695;DHT22;2361;49.540;8.390;2023-04-03T00:05:55;6.30;99.90
4695;DHT22;2361;49.540;8.390;2023-04-03T00:08:22;6.30;99.90
4695;DHT22;2361;49.540;8.390;2023-04-03T00:10:49;6.30;99.90
4695;DHT22;2361;49.540;8.390;2023-04-03T00:13:17;6.30;99.90
4695;DHT22;2361;49.540;8.390;2023-04-03T00:15:44;6.30;99.90
4695;DHT22;2361;49.540;8.390;2023-04-03T00:18:11;6.30;99.90
4695;DHT22;2361;49.540;8.390;2023-04-03T00:20:38;6.30;99.90
4695;DHT22;2361;49.540;8.390;2023-04-03T00:23:05;6.20;99.90
4695;DHT22;2361;49.540;8.390;2023-04-03T00:25:33;6.20;99.90
4695;DHT22;2361;49.540;8.390;2023-04-03T00:28:04;6.20;99.90
4695;DHT22;2361;49.540;8.390;2023-04-03T00:30:31;6.20;99.90
4695;DHT22;2361;49.540;8.390;2023-04-03T00:32:58;6.10;99.90
4695;DHT22;2361;49.540;8.390;2023-04-03T00:35:26;6.10;99.90
4695;DHT22;2361;49.540;8.390;2023-04-03T00:37:55;6.00;99.90
4695;DHT22;2361;49.540;8.390;2023-04-03T00:40:25;6.00;99.90
4695;DHT22;2361;49.540;8.390;2023-04-03T00:42:58;6.00;99.90
4695;DHT22;2361;49.540;8.390;2023-04-03T00:45:35;5.90;99.90
4695;DHT22;2361;49.540;8.390;2023-04-03T00:48:05;5.90;99.90
4695;DHT22;2361;49.540;8.390;2023-04-03T00:50:36;5.90;99.90
4695;DHT22;2361;49.540;8.390;2023-04-03T00:53:06;5.80;99.90
4695;DHT22;2361;49.540;8.390;2023-04-03T00:55:36;5.80;99.90
4695;DHT22;2361;49.540;8.390;2023-04-03T00:58:05;5.80;99.90
4695;DHT22;2361;49.540;8.390;2023-04-03T01:00:39;5.70;99.90
4695;DHT22;2361;49.540;8.390;2023-04-03T01:03:07;5.70;99.90
4695;DHT22;2361;49.540;8.390;2023-04-03T01:05:34;5.60;99.90
4695;DHT22;2361;49.540;8.390;2023-04-03T01:08:02;5.60;99.90
4695;DHT22;2361;49.540;8.390;2023-04-03T01:10:28;5.60;99.90
4695;DHT22;2361;49.540;8.390;2023-04-03T01:12:56;5.60;99.90
4695;DHT22;2361;49.540;8.390;2023-04-03T01:15:26;5.50;99.90
4695;DHT22;2361;49.540;8.390;2023-04-03T01:17:56;5.60;99.90
4695;DHT22;2361;49.540;8.390;2023-04-03T01:25:50;5.50;99.90
4695;DHT22;2361;49.540;8.390;2023-04-03T01:28:22;5.50;99.90
4695;DHT22;2361;49.540;8.390;2023-04-03T01:33:46;5.40;99.90
4695;DHT22;2361;49.540;8.390;2023-04-03T01:36:17;5.40;99.90
4695;DHT22;2361;49.540;8.390;2023-04-03T01:38:46;5.30;99.90
4695;DHT22;2361;49.540;8.390;2023-04-03T01:41:13;5.30;99.90
4695;DHT22;2361;49.540;8.390;2023-04-03T01:43:40;5.20;99.90
4695;DHT22;2361;49.540;8.390;2023-04-03T01:46:07;5.20;99.90
4695;DHT22;2361;49.540;8.390;2023-04-03T01:48:34;5.20;99.90
4695;DHT22;2361;49.540;8.390;2023-04-03T01:51:01;5.20;99.90
4695;DHT22;2361;49.540;8.390;2023-04-03T01:53:28;5.10;99.90
4695;DHT22;2361;49.540;8.390;2023-04-03T01:55:55;5.10;99.90
4695;DHT22;2361;49.540;8.390;2023-04-03T01:58:22;5.00;99.90
4695;DHT22;2361;49.540;8.390;2023-04-03T02:00:49;5.00;99.90
4695;DHT22;2361;49.540;8.390;2023-04-03T02:03:16;5.00;99.90
4695;DHT22;2361;49.540;8.390;2023-04-03T02:05:43;5.00;99.90
4695;DHT22;2361;49.540;8.390;2023-04-03T02:08:10;4.90;99.90
4695;DHT22;2361;49.540;8.390;2023-04-03T02:10:37;4.90;99.90
4695;DHT22;2361;49.540;8.390;2023-04-03T02:13:04;4.80;99.90
4695;DHT22;2361;49.540;8.390;2023-04-03T02:15:31;4.90;99.90
4695;DHT22;2361;49.540;8.390;2023-04-03T02:17:58;4.90;99.90
4695;DHT22;2361;49.540;8.390;2023-04-03T02:20:26;4.80;99.90
4695;DHT22;2361;49.540;8.390;2023-04-03T02:22:53;4.90;99.90
4695;DHT22;2361;49.540;8.390;2023-04-03T02:25:20;4.90;99.90
4695;DHT22;2361;49.540;8.390;2023-04-03T02:27:47;4.90;99.90
4695;DHT22;2361;49.540;8.390;2023-04-03T02:30:14;4.80;99.90
4695;DHT22;2361;49.540;8.390;2023-04-03T02:32:42;4.80;99.90
4695;DHT22;2361;49.540;8.390;2023-04-03T02:35:11;4.80;99.90
4695;DHT22;2361;49.540;8.390;2023-04-03T02:37:38;4.80;99.90
4695;DHT22;2361;49.540;8.390;2023-04-03T02:40:06;4.80;99.90
4695;DHT22;2361;49.540;8.390;2023-04-03T02:42:35;4.80;99.90
4695;DHT22;2361;49.540;8.390;2023-04-03T02:45:02;4.80;99.90
4695;DHT22;2361;49.540;8.390;2023-04-03T02:47:29;4.80;99.90
4695;DHT22;2361;49.540;8.390;2023-04-03T02:49:56;4.80;99.90
4695;DHT22;2361;49.540;8.390;2023-04-03T02:52:23;4.80;99.90
4695;DHT22;2361;49.540;8.390;2023-04-03T02:54:50;4.80;99.90
4695;DHT22;2361;49.540;8.390;2023-04-03T02:57:17;4.80;99.90
4695;DHT22;2361;49.540;8.390;2023-04-03T02:59:44;4.80;99.90
4695;DHT22;2361;49.540;8.390;2023-04-03T03:02:11;4.80;99.90
4695;DHT22;2361;49.540;8.390;2023-04-03T03:04:38;4.80;99.90
4695;DHT22;2361;49.540;8.390;2023-04-03T03:07:05;4.90;99.90
4695;DHT22;2361;49.540;8.390;2023-04-03T03:09:32;4.90;99.90
4695;DHT22;2361;49.540;8.390;2023-04-03T03:11:59;4.90;99.90
4695;DHT22;2361;49.540;8.390;2023-04-03T03:14:26;4.90;99.90
4695;DHT22;2361;49.540;8.390;2023-04-03T03:16:53;4.90;99.90
4695;DHT22;2361;49.540;8.390;2023-04-03T03:19:20;4.80;99.90
4695;DHT22;2361;49.540;8.390;2023-04-03T03:21:47;4.80;99.90
4695;DHT22;2361;49.540;8.390;2023-04-03T03:24:14;4.80;99.90
4695;DHT22;2361;49.540;8.390;2023-04-03T03:26:42;4.90;99.90
4695;DHT22;2361;49.540;8.390;2023-04-03T03:29:09;4.80;99.90
4695;DHT22;2361;49.540;8.390;2023-04-03T03:31:36;4.80;99.90
4695;DHT22;2361;49.540;8.390;2023-04-03T03:34:03;4.80;99.90
4695;DHT22;2361;49.540;8.390;2023-04-03T03:36:30;4.70;99.90
4695;DHT22;2361;49.540;8.390;2023-04-03T03:38:58;4.80;99.90
4695;DHT22;2361;49.540;8.390;2023-04-03T03:41:25;4.80;99.90
4695;DHT22;2361;49.540;8.390;2023-04-03T03:43:51;4.70;99.90
4695;DHT22;2361;49.540;8.390;2023-04-03T03:46:18;4.80;99.90
4695;DHT22;2361;49.540;8.390;2023-04-03T03:48:45;4.70;99.90
4695;DHT22;2361;49.540;8.390;2023-04-03T03:51:12;4.70;99.90
4695;DHT22;2361;49.540;8.390;2023-04-03T03:53:39;4.70;99.90
4695;DHT22;2361;49.540;8.390;2023-04-03T03:56:07;4.70;99.90
4695;DHT22;2361;49.540;8.390;2023-04-03T03:58:34;4.70;99.90
4695;DHT22;2361;49.540;8.390;2023-04-03T04:01:05;4.70;99.90
4695;DHT22;2361;49.540;8.390;2023-04-03T04:03:33;4.70;99.90
4695;DHT22;2361;49.540;8.390;2023-04-03T04:06:00;4.60;99.90
4695;DHT22;2361;49.540;8.390;2023-04-03T04:08:27;4.70;99.90
4695;DHT22;2361;49.540;8.390;2023-04-03T04:10:54;4.60;99.90
4695;DHT22;2361;49.540;8.390;2023-04-03T04:13:21;4.60;99.90
4695;DHT22;2361;49.540;8.390;2023-04-03T04:15:48;4.60;99.90
4695;DHT22;2361;49.540;8.390;2023-04-03T04:18:15;4.60;99.90
4695;DHT22;2361;49.540;8.390;2023-04-03T04:20:42;4.60;99.90
4695;DHT22;2361;49.540;8.390;2023-04-03T04:23:11;4.60;99.90
4695;DHT22;2361;49.540;8.390;2023-04-03T04:25:38;4.60;99.90
4695;DHT22;2361;49.540;8.390;2023-04-03T04:28:06;4.50;99.90
4695;DHT22;2361;49.540;8.390;2023-04-03T04:30:33;4.50;99.90
4695;DHT22;2361;49.540;8.390;2023-04-03T04:33:00;4.50;99.90
4695;DHT22;2361;49.540;8.390;2023-04-03T04:35:27;4.50;99.90
4695;DHT22;2361;49.540;8.390;2023-04-03T04:37:55;4.50;99.90
4695;DHT22;2361;49.540;8.390;2023-04-03T04:40:22;4.40;99.90
4695;DHT22;2361;49.540;8.390;2023-04-03T04:42:49;4.40;99.90
4695;DHT22;2361;49.540;8.390;2023-04-03T04:45:16;4.40;99.90
4695;DHT22;2361;49.540;8.390;2023-04-03T04:47:43;4.40;99.90
4695;DHT22;2361;49.540;8.390;2023-04-03T04:50:11;4.40;99.90
4695;DHT22;2361;49.540;8.390;2023-04-03T04:52:38;4.40;99.90
4695;DHT22;2361;49.540;8.390;2023-04-03T04:55:05;4.40;99.90
4695;DHT22;2361;49.540;8.390;2023-04-03T04:57:32;4.40;99.90
4695;DHT22;2361;49.540;8.390;2023-04-03T05:00:00;4.40;99.90
4695;DHT22;2361;49.540;8.390;2023-04-03T05:02:27;4.40;99.90
4695;DHT22;2361;49.540;8.390;2023-04-03T05:04:54;4.40;99.90
4695;DHT22;2361;49.540;8.390;2023-04-03T05:07:21;4.50;99.90
4695;DHT22;2361;49.540;8.390;2023-04-03T05:09:48;4.50;99.90
4695;DHT22;2361;49.540;8.390;2023-04-03T05:12:15;4.50;99.90
4695;DHT22;2361;49.540;8.390;2023-04-03T05:14:42;4.50;99.90
4695;DHT22;2361;49.540;8.390;2023-04-03T05:17:09;4.40;99.90
4695;DHT22;2361;49.540;8.390;2023-04-03T05:19:36;4.50;99.90
4695;DHT22;2361;49.540;8.390;2023-04-03T05:22:03;4.50;99.90
4695;DHT22;2361;49.540;8.390;2023-04-03T05:24:30;4.70;99.90
4695;DHT22;2361;49.540;8.390;2023-04-03T05:26:57;4.90;99.90
4695;DHT22;2361;49.540;8.390;2023-04-03T05:29:24;5.10;99.90
4695;DHT22;2361;49.540;8.390;2023-04-03T05:31:51;5.40;99.90
4695;DHT22;2361;49.540;8.390;2023-04-03T05:34:18;5.70;99.90
4695;DHT22;2361;49.540;8.390;2023-04-03T05:36:45;6.00;99.90
4695;DHT22;2361;49.540;8.390;2023-04-03T05:39:12;6.30;99.90
4695;DHT22;2361;49.540;8.390;2023-04-03T05:41:39;6.60;99.90
4695;DHT22;2361;49.540;8.390;2023-04-03T05:44:06;6.90;99.90
4695;DHT22;2361;49.540;8.390;2023-04-03T05:46:33;7.20;99.90
4695;DHT22;2361;49.540;8.390;2023-04-03T05:49:00;7.60;99.90
4695;DHT22;2361;49.540;8.390;2023-04-03T05:51:30;7.90;99.90
4695;DHT22;2361;49.540;8.390;2023-04-03T05:54:17;8.20;99.90
4695;DHT22;2361;49.540;8.390;2023-04-03T05:56:46;8.60;99.90
4695;DHT22;2361;49.540;8.390;2023-04-03T05:59:13;8.90;99.90
4695;DHT22;2361;49.540;8.390;2023-04-03T06:01:40;9.20;99.90
4695;DHT22;2361;49.540;8.390;2023-04-03T06:04:07;9.70;99.90
4695;DHT22;2361;49.540;8.390;2023-04-03T06:06:44;10.00;99.90
4695;DHT22;2361;49.540;8.390;2023-04-03T06:09:13;10.30;99.90
4695;DHT22;2361;49.540;8.390;2023-04-03T06:11:41;10.70;99.90
4695;DHT22;2361;49.540;8.390;2023-04-03T06:14:09;11.10;99.90
4695;DHT22;2361;49.540;8.390;2023-04-03T06:16:36;11.50;99.90
4695;DHT22;2361;49.540;8.390;2023-04-03T06:19:06;11.80;99.90
4695;DHT22;2361;49.540;8.390;2023-04-03T06:21:35;12.30;99.90
4695;DHT22;2361;49.540;8.390;2023-04-03T06:24:04;12.60;99.00
4695;DHT22;2361;49.540;8.390;2023-04-03T06:26:32;12.90;98.10
4695;DHT22;2361;49.540;8.390;2023-04-03T06:29:00;13.50;97.10
4695;DHT22;2361;49.540;8.390;2023-04-03T06:31:28;14.20;95.40
4695;DHT22;2361;49.540;8.390;2023-04-03T06:33:56;14.80;94.00
4695;DHT22;2361;49.540;8.390;2023-04-03T06:36:22;15.20;92.50
4695;DHT22;2361;49.540;8.390;2023-04-03T06:38:50;15.30;91.20
4695;DHT22;2361;49.540;8.390;2023-04-03T06:41:17;15.30;91.00
4695;DHT22;2361;49.540;8.390;2023-04-03T06:43:44;15.70;90.10
4695;DHT22;2361;49.540;8.390;2023-04-03T06:46:21;16.10;88.00
4695;DHT22;2361;49.540;8.390;2023-04-03T06:48:49;16.20;86.20
4695;DHT22;2361;49.540;8.390;2023-04-03T06:51:20;16.40;85.30
4695;DHT22;2361;49.540;8.390;2023-04-03T06:53:57;16.60;83.10
4695;DHT22;2361;49.540;8.390;2023-04-03T06:56:25;16.50;82.70
4695;DHT22;2361;49.540;8.390;2023-04-03T06:58:54;16.70;82.30
4695;DHT22;2361;49.540;8.390;2023-04-03T07:01:25;16.50;80.90
4695;DHT22;2361;49.540;8.390;2023-04-03T07:03:55;16.10;81.70
4695;DHT22;2361;49.540;8.390;2023-04-03T07:06:22;16.20;81.40
4695;DHT22;2361;49.540;8.390;2023-04-03T07:08:49;16.40;81.80
4695;DHT22;2361;49.540;8.390;2023-04-03T07:11:16;16.70;79.20
4695;DHT22;2361;49.540;8.390;2023-04-03T07:13:43;16.60;80.00
4695;DHT22;2361;49.540;8.390;2023-04-03T07:16:10;16.80;80.10
4695;DHT22;2361;49.540;8.390;2023-04-03T07:18:38;17.10;79.20
4695;DHT22;2361;49.540;8.390;2023-04-03T07:21:05;17.40;77.70
4695;DHT22;2361;49.540;8.390;2023-04-03T07:23:32;17.80;76.20
4695;DHT22;2361;49.540;8.390;2023-04-03T07:25:59;17.80;75.10
4695;DHT22;2361;49.540;8.390;2023-04-03T07:28:26;17.70;73.90
4695;DHT22;2361;49.540;8.390;2023-04-03T07:31:05;17.70;74.80
4695;DHT22;2361;49.540;8.390;2023-04-03T07:33:35;18.00;73.20
4695;DHT22;2361;49.540;8.390;2023-04-03T07:36:03;17.40;73.30
4695;DHT22;2361;49.540;8.390;2023-04-03T07:38:30;17.30;74.30
4695;DHT22;2361;49.540;8.390;2023-04-03T07:40:57;17.60;74.30
4695;DHT22;2361;49.540;8.390;2023-04-03T07:43:24;17.00;73.90
4695;DHT22;2361;49.540;8.390;2023-04-03T07:45:52;15.90;75.70
4695;DHT22;2361;49.540;8.390;2023-04-03T07:48:22;14.90;77.60
4695;DHT22;2361;49.540;8.390;2023-04-03T07:50:50;14.50;79.50
4695;DHT22;2361;49.540;8.390;2023-04-03T07:53:17;14.40;80.50
4695;DHT22;2361;49.540;8.390;2023-04-03T07:55:48;14.10;82.40
4695;DHT22;2361;49.540;8.390;2023-04-03T07:58:18;14.50;81.90
4695;DHT22;2361;49.540;8.390;2023-04-03T08:00:46;15.20;79.90
4695;DHT22;2361;49.540;8.390;2023-04-03T08:03:14;15.70;78.60
4695;DHT22;2361;49.540;8.390;2023-04-03T08:05:45;16.20;76.40
4695;DHT22;2361;49.540;8.390;2023-04-03T08:08:16;16.90;74.90
4695;DHT22;2361;49.540;8.390;2023-04-03T08:10:50;17.50;73.70
4695;DHT22;2361;49.540;8.390;2023-04-03T08:13:21;18.00;69.40
4695;DHT22;2361;49.540;8.390;2023-04-03T08:15:49;18.90;68.30
4695;DHT22;2361;49.540;8.390;2023-04-03T08:18:16;20.00;65.30
4695;DHT22;2361;49.540;8.390;2023-04-03T08:20:43;19.90;59.70
4695;DHT22;2361;49.540;8.390;2023-04-03T08:23:11;19.60;60.10
4695;DHT22;2361;49.540;8.390;2023-04-03T08:25:39;20.20;59.00
4695;DHT22;2361;49.540;8.390;2023-04-03T08:28:08;20.70;55.90
4695;DHT22;2361;49.540;8.390;2023-04-03T08:30:35;19.30;57.00
4695;DHT22;2361;49.540;8.390;2023-04-03T08:33:05;18.60;57.40
4695;DHT22;2361;49.540;8.390;2023-04-03T08:35:32;19.00;58.60
4695;DHT22;2361;49.540;8.390;2023-04-03T08:38:00;20.00;56.50
4695;DHT22;2361;49.540;8.390;2023-04-03T08:40:28;20.90;54.80
4695;DHT22;2361;49.540;8.390;2023-04-03T08:48:26;23.20;50.20
4695;DHT22;2361;49.540;8.390;2023-04-03T08:50:58;23.20;50.20
4695;DHT22;2361;49.540;8.390;2023-04-03T08:53:32;23.30;49.80
4695;DHT22;2361;49.540;8.390;2023-04-03T08:56:05;23.70;49.30
4695;DHT22;2361;49.540;8.390;2023-04-03T08:59:03;24.40;47.90
4695;DHT22;2361;49.540;8.390;2023-04-03T09:01:36;25.50;46.80
4695;DHT22;2361;49.540;8.390;2023-04-03T09:04:14;25.60;44.80
4695;DHT22;2361;49.540;8.390;2023-04-03T09:06:50;24.80;45.10
4695;DHT22;2361;49.540;8.390;2023-04-03T09:09:37;24.00;45.60
4695;DHT22;2361;49.540;8.390;2023-04-03T09:12:13;22.70;45.90
4695;DHT22;2361;49.540;8.390;2023-04-03T09:14:45;20.40;47.40
4695;DHT22;2361;49.540;8.390;2023-04-03T09:17:35;20.70;48.70
4695;DHT22;2361;49.540;8.390;2023-04-03T09:20:36;20.60;48.10
4695;DHT22;2361;49.540;8.390;2023-04-03T09:23:25;17.10;51.70
4695;DHT22;2361;49.540;8.390;2023-04-03T09:26:19;14.60;61.00
4695;DHT22;2361;49.540;8.390;2023-04-03T09:28:48;14.30;62.50
4695;DHT22;2361;49.540;8.390;2023-04-03T09:31:23;14.80;61.60
4695;DHT22;2361;49.540;8.390;2023-04-03T09:34:01;15.60;61.60
4695;DHT22;2361;49.540;8.390;2023-04-03T09:36:44;17.50;59.20
4695;DHT22;2361;49.540;8.390;2023-04-03T09:39:21;20.00;49.80
4695;DHT22;2361;49.540;8.390;2023-04-03T09:42:00;21.70;47.60
4695;DHT22;2361;49.540;8.390;2023-04-03T09:44:35;21.60;46.60
4695;DHT22;2361;49.540;8.390;2023-04-03T09:47:30;21.90;46.60
4695;DHT22;2361;49.540;8.390;2023-04-03T09:52:48;25.00;43.00
4695;DHT22;2361;49.540;8.390;2023-04-03T09:55:20;25.80;42.40
4695;DHT22;2361;49.540;8.390;2023-04-03T09:58:04;24.80;43.00
4695;DHT22;2361;49.540;8.390;2023-04-03T10:00:37;24.30;43.30
4695;DHT22;2361;49.540;8.390;2023-04-03T10:03:21;23.20;43.80
4695;DHT22;2361;49.540;8.390;2023-04-03T10:05:51;22.90;43.50
4695;DHT22;2361;49.540;8.390;2023-04-03T10:08:24;23.70;43.40
4695;DHT22;2361;49.540;8.390;2023-04-03T10:11:17;23.50;43.00
4695;DHT22;2361;49.540;8.390;2023-04-03T10:13:57;24.10;42.50
4695;DHT22;2361;49.540;8.390;2023-04-03T10:16:32;25.00;42.80
4695;DHT22;2361;49.540;8.390;2023-04-03T10:25:28;22.90;41.80
4695;DHT22;2361;49.540;8.390;2023-04-03T10:28:18;18.90;47.10
4695;DHT22;2361;49.540;8.390;2023-04-03T10:33:52;16.10;51.50
4695;DHT22;2361;49.540;8.390;2023-04-03T10:42:50;15.00;53.40
4695;DHT22;2361;49.540;8.390;2023-04-03T10:45:27;14.40;53.50
4695;DHT22;2361;49.540;8.390;2023-04-03T10:51:48;13.50;53.30
4695;DHT22;2361;49.540;8.390;2023-04-03T10:57:37;13.50;52.60
4695;DHT22;2361;49.540;8.390;2023-04-03T11:00:22;13.20;52.40
4695;DHT22;2361;49.540;8.390;2023-04-03T11:02:57;12.90;54.10
4695;DHT22;2361;49.540;8.390;2023-04-03T11:05:37;13.00;54.40
4695;DHT22;2361;49.540;8.390;2023-04-03T11:11:09;12.80;53.80
4695;DHT22;2361;49.540;8.390;2023-04-03T11:13:49;12.40;55.50
4695;DHT22;2361;49.540;8.390;2023-04-03T11:16:27;12.40;55.70
4695;DHT22;2361;49.540;8.390;2023-04-03T11:19:10;12.30;55.70
4695;DHT22;2361;49.540;8.390;2023-04-03T11:22:04;12.20;56.50
4695;DHT22;2361;49.540;8.390;2023-04-03T11:24:38;12.10;57.40
4695;DHT22;2361;49.540;8.390;2023-04-03T11:27:15;12.00;56.50
4695;DHT22;2361;49.540;8.390;2023-04-03T11:29:46;12.00;56.60
4695;DHT22;2361;49.540;8.390;2023-04-03T11:35:16;11.80;56.80
4695;DHT22;2361;49.540;8.390;2023-04-03T11:37:47;11.60;57.20
4695;DHT22;2361;49.540;8.390;2023-04-03T11:42:46;11.80;57.00
4695;DHT22;2361;49.540;8.390;2023-04-03T11:47:50;11.90;61.00
4695;DHT22;2361;49.540;8.390;2023-04-03T11:53:26;12.00;57.00
4695;DHT22;2361;49.540;8.390;2023-04-03T11:58:34;12.00;57.20
4695;DHT22;2361;49.540;8.390;2023-04-03T12:01:11;12.00;57.70
4695;DHT22;2361;49.540;8.390;2023-04-03T12:04:21;11.80;57.70
4695;DHT22;2361;49.540;8.390;2023-04-03T12:06:51;11.60;57.90
4695;DHT22;2361;49.540;8.390;2023-04-03T12:12:32;11.40;59.50
4695;DHT22;2361;49.540;8.390;2023-04-03T12:18:39;11.20;60.00
4695;DHT22;2361;49.540;8.390;2023-04-03T12:21:09;11.20;60.40
4695;DHT22;2361;49.540;8.390;2023-04-03T12:29:43;11.40;59.90
4695;DHT22;2361;49.540;8.390;2023-04-03T12:32:37;11.40;59.20
4695;DHT22;2361;49.540;8.390;2023-04-03T12:35:51;11.10;59.90
4695;DHT22;2361;49.540;8.390;2023-04-03T12:39:01;11.10;59.20
4695;DHT22;2361;49.540;8.390;2023-04-03T12:41:38;11.10;59.40
4695;DHT22;2361;49.540;8.390;2023-04-03T12:47:28;11.00;60.90
4695;DHT22;2361;49.540;8.390;2023-04-03T12:49:59;11.10;60.20
4695;DHT22;2361;49.540;8.390;2023-04-03T12:52:39;11.00;61.30
4695;DHT22;2361;49.540;8.390;2023-04-03T12:55:18;11.10;60.70
4695;DHT22;2361;49.540;8.390;2023-04-03T12:57:47;11.10;60.20
4695;DHT22;2361;49.540;8.390;2023-04-03T13:00:28;10.90;60.80
4695;DHT22;2361;49.540;8.390;2023-04-03T13:03:02;10.60;60.90
4695;DHT22;2361;49.540;8.390;2023-04-03T13:05:31;10.60;60.50
4695;DHT22;2361;49.540;8.390;2023-04-03T13:08:12;10.70;60.00
4695;DHT22;2361;49.540;8.390;2023-04-03T13:11:09;10.90;60.50
4695;DHT22;2361;49.540;8.390;2023-04-03T13:13:37;11.10;60.10
4695;DHT22;2361;49.540;8.390;2023-04-03T13:16:11;11.20;60.30
4695;DHT22;2361;49.540;8.390;2023-04-03T13:18:40;11.10;59.50
4695;DHT22;2361;49.540;8.390;2023-04-03T13:21:26;11.10;59.70
4695;DHT22;2361;49.540;8.390;2023-04-03T13:24:01;10.90;59.80
4695;DHT22;2361;49.540;8.390;2023-04-03T13:26:41;10.70;60.90
4695;DHT22;2361;49.540;8.390;2023-04-03T13:29:21;10.50;61.00
4695;DHT22;2361;49.540;8.390;2023-04-03T13:31:57;10.40;61.50
4695;DHT22;2361;49.540;8.390;2023-04-03T13:34:27;10.30;62.20
4695;DHT22;2361;49.540;8.390;2023-04-03T13:37:00;10.30;62.10
4695;DHT22;2361;49.540;8.390;2023-04-03T13:39:38;10.30;61.70
4695;DHT22;2361;49.540;8.390;2023-04-03T13:42:25;10.40;62.30
4695;DHT22;2361;49.540;8.390;2023-04-03T13:45:18;10.40;61.80
4695;DHT22;2361;49.540;8.390;2023-04-03T13:47:52;10.40;60.30
4695;DHT22;2361;49.540;8.390;2023-04-03T13:50:23;10.50;60.60
4695;DHT22;2361;49.540;8.390;2023-04-03T13:53:08;10.60;60.60
4695;DHT22;2361;49.540;8.390;2023-04-03T13:55:55;10.60;61.30
4695;DHT22;2361;49.540;8.390;2023-04-03T13:58:33;10.60;62.30
4695;DHT22;2361;49.540;8.390;2023-04-03T14:03:32;10.40;61.00
4695;DHT22;2361;49.540;8.390;2023-04-03T14:06:15;10.30;61.50
4695;DHT22;2361;49.540;8.390;2023-04-03T14:08:44;10.20;61.90
4695;DHT22;2361;49.540;8.390;2023-04-03T14:11:15;10.10;61.00
4695;DHT22;2361;49.540;8.390;2023-04-03T14:13:45;10.10;60.50
4695;DHT22;2361;49.540;8.390;2023-04-03T14:16:18;9.90;60.20
4695;DHT22;2361;49.540;8.390;2023-04-03T14:18:49;9.90;60.40
4695;DHT22;2361;49.540;8.390;2023-04-03T14:21:18;9.90;60.90
4695;DHT22;2361;49.540;8.390;2023-04-03T14:23:46;10.00;59.90
4695;DHT22;2361;49.540;8.390;2023-04-03T14:26:17;10.10;60.50
4695;DHT22;2361;49.540;8.390;2023-04-03T14:28:49;10.20;59.40
4695;DHT22;2361;49.540;8.390;2023-04-03T14:31:19;10.20;60.30
4695;DHT22;2361;49.540;8.390;2023-04-03T14:33:47;10.20;60.50
4695;DHT22;2361;49.540;8.390;2023-04-03T14:38:48;10.10;58.60
4695;DHT22;2361;49.540;8.390;2023-04-03T14:41:18;10.00;58.30
4695;DHT22;2361;49.540;8.390;2023-04-03T14:43:49;9.90;57.40
4695;DHT22;2361;49.540;8.390;2023-04-03T14:46:20;9.80;58.50
4695;DHT22;2361;49.540;8.390;2023-04-03T14:48:54;9.70;58.20
4695;DHT22;2361;49.540;8.390;2023-04-03T14:51:21;9.70;58.80
4695;DHT22;2361;49.540;8.390;2023-04-03T14:53:48;9.70;59.80
4695;DHT22;2361;49.540;8.390;2023-04-03T14:56:25;9.70;59.80
4695;DHT22;2361;49.540;8.390;2023-04-03T14:58:58;9.80;58.60
4695;DHT22;2361;49.540;8.390;2023-04-03T15:01:28;9.70;59.50
4695;DHT22;2361;49.540;8.390;2023-04-03T15:03:55;9.70;58.60
4695;DHT22;2361;49.540;8.390;2023-04-03T15:06:22;9.80;59.80
4695;DHT22;2361;49.540;8.390;2023-04-03T15:08:50;9.90;58.10
4695;DHT22;2361;49.540;8.390;2023-04-03T15:11:17;9.90;57.00
4695;DHT22;2361;49.540;8.390;2023-04-03T15:13:43;9.80;57.20
4695;DHT22;2361;49.540;8.390;2023-04-03T15:16:15;9.80;56.70
4695;DHT22;2361;49.540;8.390;2023-04-03T15:18:44;9.80;58.20
4695;DHT22;2361;49.540;8.390;2023-04-03T15:21:11;9.80;58.40
4695;DHT22;2361;49.540;8.390;2023-04-03T15:23:39;9.80;57.20
4695;DHT22;2361;49.540;8.390;2023-04-03T15:26:06;9.70;56.30
4695;DHT22;2361;49.540;8.390;2023-04-03T15:28:39;9.80;55.80
4695;DHT22;2361;49.540;8.390;2023-04-03T15:31:07;9.80;55.10
4695;DHT22;2361;49.540;8.390;2023-04-03T15:33:35;9.80;56.10
4695;DHT22;2361;49.540;8.390;2023-04-03T15:36:03;9.70;56.90
4695;DHT22;2361;49.540;8.390;2023-04-03T15:38:33;9.70;57.90
4695;DHT22;2361;49.540;8.390;2023-04-03T15:41:01;9.70;58.10
4695;DHT22;2361;49.540;8.390;2023-04-03T15:43:28;9.70;58.30
4695;DHT22;2361;49.540;8.390;2023-04-03T15:45:57;9.70;58.10
4695;DHT22;2361;49.540;8.390;2023-04-03T15:48:26;9.70;61.70
4695;DHT22;2361;49.540;8.390;2023-04-03T15:50:54;9.60;60.30
4695;DHT22;2361;49.540;8.390;2023-04-03T15:53:22;9.50;58.40
4695;DHT22;2361;49.540;8.390;2023-04-03T15:55:49;9.50;58.80
4695;DHT22;2361;49.540;8.390;2023-04-03T15:58:16;9.60;59.90
4695;DHT22;2361;49.540;8.390;2023-04-03T16:00:44;9.60;59.60
4695;DHT22;2361;49.540;8.390;2023-04-03T16:03:12;9.60;60.50
4695;DHT22;2361;49.540;8.390;2023-04-03T16:05:42;9.70;59.90
4695;DHT22;2361;49.540;8.390;2023-04-03T16:08:10;9.70;59.30
4695;DHT22;2361;49.540;8.390;2023-04-03T16:10:37;9.80;59.10
4695;DHT22;2361;49.540;8.390;2023-04-03T16:13:05;9.80;58.80
4695;DHT22;2361;49.540;8.390;2023-04-03T16:15:33;9.80;58.70
4695;DHT22;2361;49.540;8.390;2023-04-03T16:18:01;9.70;58.90
4695;DHT22;2361;49.540;8.390;2023-04-03T16:20:29;9.70;59.50
4695;DHT22;2361;49.540;8.390;2023-04-03T16:22:58;9.80;60.30
4695;DHT22;2361;49.540;8.390;2023-04-03T16:25:26;9.70;58.30
4695;DHT22;2361;49.540;8.390;2023-04-03T16:27:54;9.70;58.30
4695;DHT22;2361;49.540;8.390;2023-04-03T16:30:21;9.60;58.90
4695;DHT22;2361;49.540;8.390;2023-04-03T16:32:48;9.60;59.00
4695;DHT22;2361;49.540;8.390;2023-04-03T16:35:15;9.50;58.80
4695;DHT22;2361;49.540;8.390;2023-04-03T16:37:42;9.50;59.40
4695;DHT22;2361;49.540;8.390;2023-04-03T16:40:09;9.40;59.00
4695;DHT22;2361;49.540;8.390;2023-04-03T16:42:38;9.40;59.20
4695;DHT22;2361;49.540;8.390;2023-04-03T16:45:06;9.40;59.30
4695;DHT22;2361;49.540;8.390;2023-04-03T16:47:34;9.40;59.50
4695;DHT22;2361;49.540;8.390;2023-04-03T16:50:01;9.40;58.80
4695;DHT22;2361;49.540;8.390;2023-04-03T16:52:28;9.30;58.50
4695;DHT22;2361;49.540;8.390;2023-04-03T16:54:55;9.40;59.00
4695;DHT22;2361;49.540;8.390;2023-04-03T16:57:24;9.30;59.50
4695;DHT22;2361;49.540;8.390;2023-04-03T16:59:52;9.40;59.60
4695;DHT22;2361;49.540;8.390;2023-04-03T17:02:20;9.30;60.10
4695;DHT22;2361;49.540;8.390;2023-04-03T17:04:48;9.30;59.50
4695;DHT22;2361;49.540;8.390;2023-04-03T17:07:18;9.30;59.50
4695;DHT22;2361;49.540;8.390;2023-04-03T17:09:46;9.30;59.80
4695;DHT22;2361;49.540;8.390;2023-04-03T17:12:14;9.20;60.00
4695;DHT22;2361;49.540;8.390;2023-04-03T17:14:42;9.20;59.20
4695;DHT22;2361;49.540;8.390;2023-04-03T17:17:09;9.20;59.10
4695;DHT22;2361;49.540;8.390;2023-04-03T17:19:36;9.10;59.60
4695;DHT22;2361;49.540;8.390;2023-04-03T17:22:04;9.10;59.30
4695;DHT22;2361;49.540;8.390;2023-04-03T17:24:31;9.10;59.60
4695;DHT22;2361;49.540;8.390;2023-04-03T17:26:59;9.10;59.20
4695;DHT22;2361;49.540;8.390;2023-04-03T17:29:26;9.10;59.20
4695;DHT22;2361;49.540;8.390;2023-04-03T17:31:53;9.00;59.50
4695;DHT22;2361;49.540;8.390;2023-04-03T17:34:20;9.00;58.60
4695;DHT22;2361;49.540;8.390;2023-04-03T17:36:47;9.00;58.70
4695;DHT22;2361;49.540;8.390;2023-04-03T17:39:14;9.00;59.20
4695;DHT22;2361;49.540;8.390;2023-04-03T17:41:42;9.00;58.90
4695;DHT22;2361;49.540;8.390;2023-04-03T17:44:11;9.00;58.70
4695;DHT22;2361;49.540;8.390;2023-04-03T17:46:38;8.90;59.00
4695;DHT22;2361;49.540;8.390;2023-04-03T17:49:06;8.90;58.70